sensor_id;sensor_type;location;lat;lon;timestamp;pressure;altitude;pressure_sealevel;temperature
72405;BMP280;60395;52.020;113.548;2023-12-29T00:03:06;92744.13;;;-14.57
72405;BMP280;60395;52.020;113.548;2023-12-29T00:06:10;92728.50;;;-14.63
72405;BMP280;60395;52.020;113.548;2023-12-29T00:09:14;92732.56;;;-14.67
72405;BMP280;60395;52.020;113.548;2023-12-29T00:12:18;92730.53;;;-14.69
72405;BMP280;60395;52.020;113.548;2023-12-29T00:15:22;92736.06;;;-14.63
72405;BMP280;60395;52.020;113.548;2023-12-29T00:18:25;92740.63;;;-14.61
72405;BMP280;60395;52.020;113.548;2023-12-29T00:21:29;92747.84;;;-14.50
72405;BMP280;60395;52.020;113.548;2023-12-29T00:24:32;92746.13;;;-14.40
72405;BMP280;60395;52.020;113.548;2023-12-29T00:27:36;92752.03;;;-14.37
72405;BMP280;60395;52.020;113.548;2023-12-29T00:30:40;92743.47;;;-14.50
72405;BMP280;60395;52.020;113.548;2023-12-29T00:34:01;92754.06;;;-14.59
72405;BMP280;60395;52.020;113.548;2023-12-29T00:37:05;92764.16;;;-14.66
72405;BMP280;60395;52.020;113.548;2023-12-29T00:40:10;92768.00;;;-14.81
72405;BMP280;60395;52.020;113.548;2023-12-29T00:43:13;92766.91;;;-15.16
72405;BMP280;60395;52.020;113.548;2023-12-29T00:46:17;92764.25;;;-15.61
72405;BMP280;60395;52.020;113.548;2023-12-29T00:49:21;92767.63;;;-15.59
72405;BMP280;60395;52.020;113.548;2023-12-29T00:52:24;92768.91;;;-15.37
72405;BMP280;60395;52.020;113.548;2023-12-29T00:55:28;92766.03;;;-15.33
72405;BMP280;60395;52.020;113.548;2023-12-29T00:58:32;92770.59;;;-15.17
72405;BMP280;60395;52.020;113.548;2023-12-29T01:01:35;92766.78;;;-14.95
72405;BMP280;60395;52.020;113.548;2023-12-29T01:04:39;92771.53;;;-14.91
72405;BMP280;60395;52.020;113.548;2023-12-29T01:07:43;92779.53;;;-15.00
72405;BMP280;60395;52.020;113.548;2023-12-29T01:10:46;92775.69;;;-14.94
72405;BMP280;60395;52.020;113.548;2023-12-29T01:13:50;92784.78;;;-14.83
72405;BMP280;60395;52.020;113.548;2023-12-29T01:16:53;92779.25;;;-14.74
72405;BMP280;60395;52.020;113.548;2023-12-29T01:19:59;92782.13;;;-14.55
72405;BMP280;60395;52.020;113.548;2023-12-29T01:23:02;92784.28;;;-14.51
72405;BMP280;60395;52.020;113.548;2023-12-29T01:26:06;92778.44;;;-14.54
72405;BMP280;60395;52.020;113.548;2023-12-29T01:29:10;92779.94;;;-14.51
72405;BMP280;60395;52.020;113.548;2023-12-29T01:32:14;92777.91;;;-14.45
72405;BMP280;60395;52.020;113.548;2023-12-29T01:35:17;92768.16;;;-14.40
72405;BMP280;60395;52.020;113.548;2023-12-29T01:38:21;92773.19;;;-14.40
72405;BMP280;60395;52.020;113.548;2023-12-29T01:41:26;92764.78;;;-14.35
72405;BMP280;60395;52.020;113.548;2023-12-29T01:44:29;92763.97;;;-14.30
72405;BMP280;60395;52.020;113.548;2023-12-29T01:47:32;92766.97;;;-14.39
72405;BMP280;60395;52.020;113.548;2023-12-29T01:50:36;92763.13;;;-14.48
72405;BMP280;60395;52.020;113.548;2023-12-29T01:53:41;92770.69;;;-14.48
72405;BMP280;60395;52.020;113.548;2023-12-29T01:56:54;92773.38;;;-14.46
72405;BMP280;60395;52.020;113.548;2023-12-29T02:00:01;92783.66;;;-14.44
72405;BMP280;60395;52.020;113.548;2023-12-29T02:03:13;92785.00;;;-14.43
72405;BMP280;60395;52.020;113.548;2023-12-29T02:06:17;92778.78;;;-14.42
72405;BMP280;60395;52.020;113.548;2023-12-29T02:09:22;92785.50;;;-14.37
72405;BMP280;60395;52.020;113.548;2023-12-29T02:12:25;92769.66;;;-14.30
72405;BMP280;60395;52.020;113.548;2023-12-29T02:15:29;92768.97;;;-14.07
72405;BMP280;60395;52.020;113.548;2023-12-29T02:18:34;92769.28;;;-13.88
72405;BMP280;60395;52.020;113.548;2023-12-29T02:21:42;92768.53;;;-13.73
72405;BMP280;60395;52.020;113.548;2023-12-29T02:24:50;92755.28;;;-13.42
72405;BMP280;60395;52.020;113.548;2023-12-29T02:27:59;92753.84;;;-13.20
72405;BMP280;60395;52.020;113.548;2023-12-29T02:31:14;92756.22;;;-12.97
72405;BMP280;60395;52.020;113.548;2023-12-29T02:34:22;92761.34;;;-12.80
72405;BMP280;60395;52.020;113.548;2023-12-29T02:37:27;92773.44;;;-12.70
72405;BMP280;60395;52.020;113.548;2023-12-29T02:40:32;92772.50;;;-12.83
72405;BMP280;60395;52.020;113.548;2023-12-29T02:43:35;92773.72;;;-12.91
72405;BMP280;60395;52.020;113.548;2023-12-29T02:46:39;92778.88;;;-13.06
72405;BMP280;60395;52.020;113.548;2023-12-29T02:49:42;92780.28;;;-13.21
72405;BMP280;60395;52.020;113.548;2023-12-29T02:52:46;92777.97;;;-13.26
72405;BMP280;60395;52.020;113.548;2023-12-29T02:55:50;92780.69;;;-13.32
72405;BMP280;60395;52.020;113.548;2023-12-29T02:58:53;92776.66;;;-13.35
72405;BMP280;60395;52.020;113.548;2023-12-29T03:01:57;92782.69;;;-13.30
72405;BMP280;60395;52.020;113.548;2023-12-29T03:05:02;92784.63;;;-13.14
72405;BMP280;60395;52.020;113.548;2023-12-29T03:08:06;92784.19;;;-12.95
72405;BMP280;60395;52.020;113.548;2023-12-29T03:11:10;92777.19;;;-12.79
72405;BMP280;60395;52.020;113.548;2023-12-29T03:14:15;92778.97;;;-12.64
72405;BMP280;60395;52.020;113.548;2023-12-29T03:17:18;92783.16;;;-12.59
72405;BMP280;60395;52.020;113.548;2023-12-29T03:20:22;92775.63;;;-12.50
72405;BMP280;60395;52.020;113.548;2023-12-29T03:23:28;92771.38;;;-12.47
72405;BMP280;60395;52.020;113.548;2023-12-29T03:26:32;92774.25;;;-12.43
72405;BMP280;60395;52.020;113.548;2023-12-29T03:29:36;92774.25;;;-12.43
72405;BMP280;60395;52.020;113.548;2023-12-29T03:32:39;92779.81;;;-12.45
72405;BMP280;60395;52.020;113.548;2023-12-29T03:35:43;92774.25;;;-12.43
72405;BMP280;60395;52.020;113.548;2023-12-29T03:38:46;92754.66;;;-12.25
72405;BMP280;60395;52.020;113.548;2023-12-29T03:41:49;92756.91;;;-12.12
72405;BMP280;60395;52.020;113.548;2023-12-29T03:44:53;92752.69;;;-12.10
72405;BMP280;60395;52.020;113.548;2023-12-29T03:47:56;92743.38;;;-12.07
72405;BMP280;60395;52.020;113.548;2023-12-29T03:51:00;92740.47;;;-12.03
72405;BMP280;60395;52.020;113.548;2023-12-29T03:54:04;92741.22;;;-11.93
72405;BMP280;60395;52.020;113.548;2023-12-29T03:57:07;92730.16;;;-11.71
72405;BMP280;60395;52.020;113.548;2023-12-29T04:00:16;92726.47;;;-11.60
72405;BMP280;60395;52.020;113.548;2023-12-29T04:03:20;92716.88;;;-11.62
72405;BMP280;60395;52.020;113.548;2023-12-29T04:06:23;92716.63;;;-11.56
72405;BMP280;60395;52.020;113.548;2023-12-29T04:09:26;92718.97;;;-11.41
72405;BMP280;60395;52.020;113.548;2023-12-29T04:12:30;92718.38;;;-11.22
72405;BMP280;60395;52.020;113.548;2023-12-29T04:15:33;92711.50;;;-11.02
72405;BMP280;60395;52.020;113.548;2023-12-29T04:18:36;92700.34;;;-10.90
72405;BMP280;60395;52.020;113.548;2023-12-29T04:21:40;92706.34;;;-10.85
72405;BMP280;60395;52.020;113.548;2023-12-29T04:24:43;92697.53;;;-10.94
72405;BMP280;60395;52.020;113.548;2023-12-29T04:27:47;92702.03;;;-11.02
72405;BMP280;60395;52.020;113.548;2023-12-29T04:30:51;92700.84;;;-11.01
72405;BMP280;60395;52.020;113.548;2023-12-29T04:33:55;92703.81;;;-10.95
72405;BMP280;60395;52.020;113.548;2023-12-29T04:37:01;92699.25;;;-10.87
72405;BMP280;60395;52.020;113.548;2023-12-29T04:40:06;92703.41;;;-10.82
72405;BMP280;60395;52.020;113.548;2023-12-29T04:43:10;92703.03;;;-10.78
72405;BMP280;60395;52.020;113.548;2023-12-29T04:46:13;92709.88;;;-10.71
72405;BMP280;60395;52.020;113.548;2023-12-29T04:49:17;92699.81;;;-10.69
72405;BMP280;60395;52.020;113.548;2023-12-29T04:52:20;92705.44;;;-10.71
72405;BMP280;60395;52.020;113.548;2023-12-29T04:55:24;92698.50;;;-10.70
72405;BMP280;60395;52.020;113.548;2023-12-29T04:58:27;92690.09;;;-10.73
72405;BMP280;60395;52.020;113.548;2023-12-29T05:01:31;92683.16;;;-10.72
72405;BMP280;60395;52.020;113.548;2023-12-29T05:04:34;92682.84;;;-10.76
72405;BMP280;60395;52.020;113.548;2023-12-29T05:07:38;92691.53;;;-10.79
72405;BMP280;60395;52.020;113.548;2023-12-29T05:10:41;92698.88;;;-10.83
72405;BMP280;60395;52.020;113.548;2023-12-29T05:13:45;92703.81;;;-10.85
72405;BMP280;60395;52.020;113.548;2023-12-29T05:16:48;92708.50;;;-10.82
72405;BMP280;60395;52.020;113.548;2023-12-29T05:19:52;92707.53;;;-10.86
72405;BMP280;60395;52.020;113.548;2023-12-29T05:22:57;92711.94;;;-10.96
72405;BMP280;60395;52.020;113.548;2023-12-29T05:26:01;92710.84;;;-11.03
72405;BMP280;60395;52.020;113.548;2023-12-29T05:29:06;92694.41;;;-11.12
72405;BMP280;60395;52.020;113.548;2023-12-29T05:32:10;92701.78;;;-11.06
72405;BMP280;60395;52.020;113.548;2023-12-29T05:35:14;92701.50;;;-11.00
72405;BMP280;60395;52.020;113.548;2023-12-29T05:38:18;92695.00;;;-10.94
72405;BMP280;60395;52.020;113.548;2023-12-29T05:41:22;92699.81;;;-10.88
72405;BMP280;60395;52.020;113.548;2023-12-29T05:44:26;92705.97;;;-10.82
72405;BMP280;60395;52.020;113.548;2023-12-29T05:47:30;92710.63;;;-10.78
72405;BMP280;60395;52.020;113.548;2023-12-29T05:50:34;92704.91;;;-10.79
72405;BMP280;60395;52.020;113.548;2023-12-29T05:53:40;92708.78;;;-10.78
72405;BMP280;60395;52.020;113.548;2023-12-29T05:56:44;92713.84;;;-10.78
72405;BMP280;60395;52.020;113.548;2023-12-29T05:59:58;92715.19;;;-10.77
72405;BMP280;60395;52.020;113.548;2023-12-29T06:03:16;92718.78;;;-10.80
72405;BMP280;60395;52.020;113.548;2023-12-29T06:06:19;92728.41;;;-10.78
72405;BMP280;60395;52.020;113.548;2023-12-29T06:09:23;92725.09;;;-10.71
72405;BMP280;60395;52.020;113.548;2023-12-29T06:12:27;92736.44;;;-10.62
72405;BMP280;60395;52.020;113.548;2023-12-29T06:15:32;92734.56;;;-10.52
72405;BMP280;60395;52.020;113.548;2023-12-29T06:18:37;92736.84;;;-10.47
72405;BMP280;60395;52.020;113.548;2023-12-29T06:21:42;92732.59;;;-10.44
72405;BMP280;60395;52.020;113.548;2023-12-29T06:24:46;92733.69;;;-10.38
72405;BMP280;60395;52.020;113.548;2023-12-29T06:27:50;92725.91;;;-10.40
72405;BMP280;60395;52.020;113.548;2023-12-29T06:30:54;92723.63;;;-10.26
72405;BMP280;60395;52.020;113.548;2023-12-29T06:33:57;92727.25;;;-10.19
72405;BMP280;60395;52.020;113.548;2023-12-29T06:37:03;92730.31;;;-10.21
72405;BMP280;60395;52.020;113.548;2023-12-29T06:40:07;92726.03;;;-10.18
72405;BMP280;60395;52.020;113.548;2023-12-29T06:43:11;92738.34;;;-10.05
72405;BMP280;60395;52.020;113.548;2023-12-29T06:46:15;92735.91;;;-9.84
72405;BMP280;60395;52.020;113.548;2023-12-29T06:49:18;92740.03;;;-9.69
72405;BMP280;60395;52.020;113.548;2023-12-29T06:52:22;92745.13;;;-9.69
72405;BMP280;60395;52.020;113.548;2023-12-29T06:55:25;92739.69;;;-9.94
72405;BMP280;60395;52.020;113.548;2023-12-29T06:58:30;92740.59;;;-10.19
72405;BMP280;60395;52.020;113.548;2023-12-29T07:01:38;92735.53;;;-10.38
72405;BMP280;60395;52.020;113.548;2023-12-29T07:04:43;92757.94;;;-10.54
72405;BMP280;60395;52.020;113.548;2023-12-29T07:07:47;92757.16;;;-10.66
72405;BMP280;60395;52.020;113.548;2023-12-29T07:10:50;92756.31;;;-10.78
72405;BMP280;60395;52.020;113.548;2023-12-29T07:13:53;92753.84;;;-10.95
72405;BMP280;60395;52.020;113.548;2023-12-29T07:16:57;92758.81;;;-11.15
72405;BMP280;60395;52.020;113.548;2023-12-29T07:20:01;92757.59;;;-11.23
72405;BMP280;60395;52.020;113.548;2023-12-29T07:23:04;92753.94;;;-11.30
72405;BMP280;60395;52.020;113.548;2023-12-29T07:26:08;92745.38;;;-11.44
72405;BMP280;60395;52.020;113.548;2023-12-29T07:29:11;92746.38;;;-11.57
72405;BMP280;60395;52.020;113.548;2023-12-29T07:32:15;92750.19;;;-11.65
72405;BMP280;60395;52.020;113.548;2023-12-29T07:35:18;92753.97;;;-11.57
72405;BMP280;60395;52.020;113.548;2023-12-29T07:38:24;92753.88;;;-11.49
72405;BMP280;60395;52.020;113.548;2023-12-29T07:41:27;92742.94;;;-11.69
72405;BMP280;60395;52.020;113.548;2023-12-29T07:44:33;92735.03;;;-12.00
72405;BMP280;60395;52.020;113.548;2023-12-29T07:47:37;92733.16;;;-12.34
72405;BMP280;60395;52.020;113.548;2023-12-29T07:50:40;92734.72;;;-12.56
72405;BMP280;60395;52.020;113.548;2023-12-29T07:53:44;92729.69;;;-12.63
72405;BMP280;60395;52.020;113.548;2023-12-29T07:56:47;92726.66;;;-12.62
72405;BMP280;60395;52.020;113.548;2023-12-29T07:59:50;92726.53;;;-12.47
72405;BMP280;60395;52.020;113.548;2023-12-29T08:02:54;92730.25;;;-12.65
72405;BMP280;60395;52.020;113.548;2023-12-29T08:05:57;92719.00;;;-12.96
72405;BMP280;60395;52.020;113.548;2023-12-29T08:09:00;92710.13;;;-13.05
72405;BMP280;60395;52.020;113.548;2023-12-29T08:12:04;92728.44;;;-12.97
72405;BMP280;60395;52.020;113.548;2023-12-29T08:15:08;92721.88;;;-13.00
72405;BMP280;60395;52.020;113.548;2023-12-29T08:18:11;92723.28;;;-13.06
72405;BMP280;60395;52.020;113.548;2023-12-29T08:21:22;92737.34;;;-12.96
72405;BMP280;60395;52.020;113.548;2023-12-29T08:24:25;92741.28;;;-12.78
72405;BMP280;60395;52.020;113.548;2023-12-29T08:27:29;92750.41;;;-12.57
72405;BMP280;60395;52.020;113.548;2023-12-29T08:30:34;92748.03;;;-12.55
72405;BMP280;60395;52.020;113.548;2023-12-29T08:33:40;92760.50;;;-12.57
72405;BMP280;60395;52.020;113.548;2023-12-29T08:36:43;92751.47;;;-12.43
72405;BMP280;60395;52.020;113.548;2023-12-29T08:39:47;92746.56;;;-12.24
72405;BMP280;60395;52.020;113.548;2023-12-29T08:42:51;92738.66;;;-12.11
72405;BMP280;60395;52.020;113.548;2023-12-29T08:45:56;92731.91;;;-12.08
72405;BMP280;60395;52.020;113.548;2023-12-29T08:48:59;92730.72;;;-12.07
72405;BMP280;60395;52.020;113.548;2023-12-29T08:52:04;92735.78;;;-12.07
72405;BMP280;60395;52.020;113.548;2023-12-29T08:55:08;92729.06;;;-12.12
72405;BMP280;60395;52.020;113.548;2023-12-29T08:58:13;92722.88;;;-12.36
72405;BMP280;60395;52.020;113.548;2023-12-29T09:01:16;92726.75;;;-12.35
72405;BMP280;60395;52.020;113.548;2023-12-29T09:04:20;92721.28;;;-12.24
72405;BMP280;60395;52.020;113.548;2023-12-29T09:07:23;92711.34;;;-12.12
72405;BMP280;60395;52.020;113.548;2023-12-29T09:10:27;92711.34;;;-12.12
72405;BMP280;60395;52.020;113.548;2023-12-29T09:13:31;92701.00;;;-12.41
72405;BMP280;60395;52.020;113.548;2023-12-29T09:16:38;92708.22;;;-12.55
72405;BMP280;60395;52.020;113.548;2023-12-29T09:19:46;92714.50;;;-12.38
72405;BMP280;60395;52.020;113.548;2023-12-29T09:23:01;92716.94;;;-12.31
72405;BMP280;60395;52.020;113.548;2023-12-29T09:26:07;92717.53;;;-12.23
72405;BMP280;60395;52.020;113.548;2023-12-29T09:29:10;92718.22;;;-12.22
72405;BMP280;60395;52.020;113.548;2023-12-29T09:32:14;92715.06;;;-12.13
72405;BMP280;60395;52.020;113.548;2023-12-29T09:35:17;92714.28;;;-12.16
72405;BMP280;60395;52.020;113.548;2023-12-29T09:38:23;92713.69;;;-12.24
72405;BMP280;60395;52.020;113.548;2023-12-29T09:41:28;92705.78;;;-12.28
72405;BMP280;60395;52.020;113.548;2023-12-29T09:44:35;92712.09;;;-12.36
72405;BMP280;60395;52.020;113.548;2023-12-29T09:47:42;92710.22;;;-12.70
72405;BMP280;60395;52.020;113.548;2023-12-29T09:50:49;92721.06;;;-13.02
72405;BMP280;60395;52.020;113.548;2023-12-29T09:53:53;92720.06;;;-13.07
72405;BMP280;60395;52.020;113.548;2023-12-29T09:56:57;92722.16;;;-13.13
72405;BMP280;60395;52.020;113.548;2023-12-29T10:00:02;92715.50;;;-13.26
72405;BMP280;60395;52.020;113.548;2023-12-29T10:03:11;92722.59;;;-13.32
72405;BMP280;60395;52.020;113.548;2023-12-29T10:06:19;92729.97;;;-13.26
72405;BMP280;60395;52.020;113.548;2023-12-29T10:09:24;92734.63;;;-13.15
72405;BMP280;60395;52.020;113.548;2023-12-29T10:12:28;92735.94;;;-13.06
72405;BMP280;60395;52.020;113.548;2023-12-29T10:15:42;92741.13;;;-13.04
72405;BMP280;60395;52.020;113.548;2023-12-29T10:22:47;92738.81;;;-13.10
72405;BMP280;60395;52.020;113.548;2023-12-29T10:25:52;92738.28;;;-13.08
72405;BMP280;60395;52.020;113.548;2023-12-29T10:28:58;92737.63;;;-13.09
72405;BMP280;60395;52.020;113.548;2023-12-29T10:32:01;92742.88;;;-13.15
72405;BMP280;60395;52.020;113.548;2023-12-29T10:35:09;92749.94;;;-13.13
72405;BMP280;60395;52.020;113.548;2023-12-29T10:38:13;92739.47;;;-13.10
72405;BMP280;60395;52.020;113.548;2023-12-29T10:41:18;92739.31;;;-13.12
72405;BMP280;60395;52.020;113.548;2023-12-29T10:44:22;92740.53;;;-13.20
72405;BMP280;60395;52.020;113.548;2023-12-29T10:47:26;92743.09;;;-13.28
72405;BMP280;60395;52.020;113.548;2023-12-29T10:50:29;92733.56;;;-13.37
72405;BMP280;60395;52.020;113.548;2023-12-29T10:53:35;92739.91;;;-13.61
72405;BMP280;60395;52.020;113.548;2023-12-29T10:56:42;92730.06;;;-13.82
72405;BMP280;60395;52.020;113.548;2023-12-29T10:59:54;92729.56;;;-13.88
72405;BMP280;60395;52.020;113.548;2023-12-29T11:02:59;92732.13;;;-13.95
72405;BMP280;60395;52.020;113.548;2023-12-29T11:06:06;92733.28;;;-13.96
72405;BMP280;60395;52.020;113.548;2023-12-29T11:09:10;92743.72;;;-13.92
72405;BMP280;60395;52.020;113.548;2023-12-29T11:12:14;92744.22;;;-13.94
72405;BMP280;60395;52.020;113.548;2023-12-29T11:15:18;92752.59;;;-13.91
72405;BMP280;60395;52.020;113.548;2023-12-29T11:18:22;92746.88;;;-13.84
72405;BMP280;60395;52.020;113.548;2023-12-29T11:21:26;92734.75;;;-13.78
72405;BMP280;60395;52.020;113.548;2023-12-29T11:24:33;92736.47;;;-13.88
72405;BMP280;60395;52.020;113.548;2023-12-29T11:27:45;92737.34;;;-14.08
72405;BMP280;60395;52.020;113.548;2023-12-29T11:30:49;92746.47;;;-14.28
72405;BMP280;60395;52.020;113.548;2023-12-29T11:34:02;92750.03;;;-14.31
72405;BMP280;60395;52.020;113.548;2023-12-29T11:37:46;92749.31;;;-14.09
72405;BMP280;60395;52.020;113.548;2023-12-29T11:44:12;92732.22;;;-13.78
72405;BMP280;60395;52.020;113.548;2023-12-29T11:47:38;92721.94;;;-13.72
72405;BMP280;60395;52.020;113.548;2023-12-29T11:50:42;92728.41;;;-13.94
72405;BMP280;60395;52.020;113.548;2023-12-29T11:53:46;92728.63;;;-14.15
72405;BMP280;60395;52.020;113.548;2023-12-29T11:56:50;92726.28;;;-14.13
72405;BMP280;60395;52.020;113.548;2023-12-29T11:59:54;92719.34;;;-13.97
72405;BMP280;60395;52.020;113.548;2023-12-29T12:02:58;92719.78;;;-13.76
72405;BMP280;60395;52.020;113.548;2023-12-29T12:06:04;92716.81;;;-13.57
72405;BMP280;60395;52.020;113.548;2023-12-29T12:09:24;92717.13;;;-13.46
72405;BMP280;60395;52.020;113.548;2023-12-29T12:12:42;92719.47;;;-13.48
72405;BMP280;60395;52.020;113.548;2023-12-29T12:15:46;92728.25;;;-13.49
72405;BMP280;60395;52.020;113.548;2023-12-29T12:18:52;92738.94;;;-13.40
72405;BMP280;60395;52.020;113.548;2023-12-29T12:21:57;92740.69;;;-13.18
72405;BMP280;60395;52.020;113.548;2023-12-29T12:25:02;92746.44;;;-13.18
72405;BMP280;60395;52.020;113.548;2023-12-29T12:28:07;92740.75;;;-13.26
72405;BMP280;60395;52.020;113.548;2023-12-29T12:31:13;92742.94;;;-13.30
72405;BMP280;60395;52.020;113.548;2023-12-29T12:34:20;92741.81;;;-13.36
72405;BMP280;60395;52.020;113.548;2023-12-29T12:37:28;92740.72;;;-13.51
72405;BMP280;60395;52.020;113.548;2023-12-29T12:40:31;92735.97;;;-13.87
72405;BMP280;60395;52.020;113.548;2023-12-29T12:43:35;92733.00;;;-14.23
72405;BMP280;60395;52.020;113.548;2023-12-29T12:46:50;92728.53;;;-14.48
72405;BMP280;60395;52.020;113.548;2023-12-29T12:49:59;92727.50;;;-14.67
72405;BMP280;60395;52.020;113.548;2023-12-29T12:53:03;92724.16;;;-14.55
72405;BMP280;60395;52.020;113.548;2023-12-29T12:56:12;92731.03;;;-14.32
72405;BMP280;60395;52.020;113.548;2023-12-29T12:59:20;92740.75;;;-14.21
72405;BMP280;60395;52.020;113.548;2023-12-29T13:02:24;92743.75;;;-14.15
72405;BMP280;60395;52.020;113.548;2023-12-29T13:05:29;92741.22;;;-14.07
72405;BMP280;60395;52.020;113.548;2023-12-29T13:08:33;92738.19;;;-13.98
72405;BMP280;60395;52.020;113.548;2023-12-29T13:11:45;92749.94;;;-13.93
72405;BMP280;60395;52.020;113.548;2023-12-29T13:14:48;92756.66;;;-13.81
72405;BMP280;60395;52.020;113.548;2023-12-29T13:17:55;92760.84;;;-13.75
72405;BMP280;60395;52.020;113.548;2023-12-29T13:20:58;92768.41;;;-13.75
72405;BMP280;60395;52.020;113.548;2023-12-29T13:24:04;92766.91;;;-13.86
72405;BMP280;60395;52.020;113.548;2023-12-29T13:27:07;92759.06;;;-14.05
72405;BMP280;60395;52.020;113.548;2023-12-29T13:30:11;92759.06;;;-14.05
72405;BMP280;60395;52.020;113.548;2023-12-29T13:36:53;92775.19;;;-13.93
72405;BMP280;60395;52.020;113.548;2023-12-29T13:43:14;92763.81;;;-14.25
72405;BMP280;60395;52.020;113.548;2023-12-29T13:46:20;92767.50;;;-14.26
72405;BMP280;60395;52.020;113.548;2023-12-29T13:49:24;92760.25;;;-14.22
72405;BMP280;60395;52.020;113.548;2023-12-29T13:52:27;92756.03;;;-14.12
72405;BMP280;60395;52.020;113.548;2023-12-29T13:55:36;92750.34;;;-14.35
72405;BMP280;60395;52.020;113.548;2023-12-29T13:58:39;92762.13;;;-14.53
72405;BMP280;60395;52.020;113.548;2023-12-29T14:01:43;92758.44;;;-14.44
72405;BMP280;60395;52.020;113.548;2023-12-29T14:04:47;92754.53;;;-14.22
72405;BMP280;60395;52.020;113.548;2023-12-29T14:07:59;92751.47;;;-14.05
72405;BMP280;60395;52.020;113.548;2023-12-29T14:11:10;92765.25;;;-13.99
72405;BMP280;60395;52.020;113.548;2023-12-29T14:14:13;92760.53;;;-13.95
72405;BMP280;60395;52.020;113.548;2023-12-29T14:17:22;92756.28;;;-13.85
72405;BMP280;60395;52.020;113.548;2023-12-29T14:20:35;92752.72;;;-13.74
72405;BMP280;60395;52.020;113.548;2023-12-29T14:23:38;92751.69;;;-13.63
72405;BMP280;60395;52.020;113.548;2023-12-29T14:29:56;92766.63;;;-13.50
72405;BMP280;60395;52.020;113.548;2023-12-29T14:33:01;92770.50;;;-13.49
72405;BMP280;60395;52.020;113.548;2023-12-29T14:36:05;92771.50;;;-13.52
72405;BMP280;60395;52.020;113.548;2023-12-29T14:39:09;92768.84;;;-13.62
72405;BMP280;60395;52.020;113.548;2023-12-29T14:42:16;92773.91;;;-13.62
72405;BMP280;60395;52.020;113.548;2023-12-29T14:45:20;92770.88;;;-13.60
72405;BMP280;60395;52.020;113.548;2023-12-29T14:48:23;92761.28;;;-13.62
72405;BMP280;60395;52.020;113.548;2023-12-29T14:51:28;92766.38;;;-13.85
72405;BMP280;60395;52.020;113.548;2023-12-29T14:54:33;92764.75;;;-13.97
72405;BMP280;60395;52.020;113.548;2023-12-29T14:57:36;92767.91;;;-13.82
72405;BMP280;60395;52.020;113.548;2023-12-29T15:00:44;92764.97;;;-13.63
72405;BMP280;60395;52.020;113.548;2023-12-29T15:03:49;92771.69;;;-13.50
72405;BMP280;60395;52.020;113.548;2023-12-29T15:06:53;92772.16;;;-13.44
72405;BMP280;60395;52.020;113.548;2023-12-29T15:09:57;92782.94;;;-13.44
72405;BMP280;60395;52.020;113.548;2023-12-29T15:13:00;92771.97;;;-13.38
72405;BMP280;60395;52.020;113.548;2023-12-29T15:16:04;92780.41;;;-13.44
72405;BMP280;60395;52.020;113.548;2023-12-29T15:19:10;92779.75;;;-13.44
72405;BMP280;60395;52.020;113.548;2023-12-29T15:22:14;92782.44;;;-13.42
72405;BMP280;60395;52.020;113.548;2023-12-29T15:25:18;92779.38;;;-13.40
72405;BMP280;60395;52.020;113.548;2023-12-29T15:28:22;92778.19;;;-13.39
72405;BMP280;60395;52.020;113.548;2023-12-29T15:31:26;92782.81;;;-13.53
72405;BMP280;60395;52.020;113.548;2023-12-29T15:34:30;92772.06;;;-13.69
72405;BMP280;60395;52.020;113.548;2023-12-29T15:37:33;92769.38;;;-13.63
72405;BMP280;60395;52.020;113.548;2023-12-29T15:40:37;92764.31;;;-13.63
72405;BMP280;60395;52.020;113.548;2023-12-29T15:43:40;92766.00;;;-13.66
72405;BMP280;60395;52.020;113.548;2023-12-29T15:46:44;92763.00;;;-13.72
72405;BMP280;60395;52.020;113.548;2023-12-29T15:49:48;92765.41;;;-13.97
72405;BMP280;60395;52.020;113.548;2023-12-29T15:52:51;92755.19;;;-14.06
72405;BMP280;60395;52.020;113.548;2023-12-29T15:55:55;92759.06;;;-14.13
72405;BMP280;60395;52.020;113.548;2023-12-29T15:58:58;92758.41;;;-14.29
72405;BMP280;60395;52.020;113.548;2023-12-29T16:02:02;92760.41;;;-14.27
72405;BMP280;60395;52.020;113.548;2023-12-29T16:05:06;92769.31;;;-14.03
72405;BMP280;60395;52.020;113.548;2023-12-29T16:08:10;92763.69;;;-13.79
72405;BMP280;60395;52.020;113.548;2023-12-29T16:11:25;92749.66;;;-13.57
72405;BMP280;60395;52.020;113.548;2023-12-29T16:14:29;92752.50;;;-13.53
72405;BMP280;60395;52.020;113.548;2023-12-29T16:17:32;92745.81;;;-13.58
72405;BMP280;60395;52.020;113.548;2023-12-29T16:20:35;92738.53;;;-13.54
72405;BMP280;60395;52.020;113.548;2023-12-29T16:23:42;92733.47;;;-13.54
72405;BMP280;60395;52.020;113.548;2023-12-29T16:26:46;92741.56;;;-13.56
72405;BMP280;60395;52.020;113.548;2023-12-29T16:29:52;92736.53;;;-13.63
72405;BMP280;60395;52.020;113.548;2023-12-29T16:32:55;92743.47;;;-13.64
72405;BMP280;60395;52.020;113.548;2023-12-29T16:36:07;92734.47;;;-13.50
72405;BMP280;60395;52.020;113.548;2023-12-29T16:39:11;92734.44;;;-13.42
72405;BMP280;60395;52.020;113.548;2023-12-29T16:42:18;92733.81;;;-13.50
72405;BMP280;60395;52.020;113.548;2023-12-29T16:45:23;92731.84;;;-13.67
72405;BMP280;60395;52.020;113.548;2023-12-29T16:48:27;92734.69;;;-13.63
72405;BMP280;60395;52.020;113.548;2023-12-29T16:51:31;92740.03;;;-13.51
72405;BMP280;60395;52.020;113.548;2023-12-29T16:54:35;92738.00;;;-13.45
72405;BMP280;60395;52.020;113.548;2023-12-29T16:57:39;92733.19;;;-13.33
72405;BMP280;60395;52.020;113.548;2023-12-29T17:00:43;92740.38;;;-13.22
72405;BMP280;60395;52.020;113.548;2023-12-29T17:03:48;92735.59;;;-13.11
72405;BMP280;60395;52.020;113.548;2023-12-29T17:06:51;92738.50;;;-13.14
72405;BMP280;60395;52.020;113.548;2023-12-29T17:09:55;92745.19;;;-13.09
72405;BMP280;60395;52.020;113.548;2023-12-29T17:12:59;92750.38;;;-13.07
72405;BMP280;60395;52.020;113.548;2023-12-29T17:16:03;92754.56;;;-13.02
72405;BMP280;60395;52.020;113.548;2023-12-29T17:19:08;92744.25;;;-12.96
72405;BMP280;60395;52.020;113.548;2023-12-29T17:22:13;92736.84;;;-12.94